Time;durP1;ratioP1;P1;durP2;ratioP2;P2;SDS_P1;SDS_P2;PMS_P1;PMS_P2;Temp;Humidity;BMP_temperature;BMP_pressure;BME280_temperature;BME280_humidity;BME280_pressure;Samples;Min_cycle;Max_cycle;Signal;HPM_P1;HPM_P2
2023/03/04 00:02:22;;;;;;;17.77;10.35;;;;;;;;;;5015754;28;20053;-88
2023/03/04 00:04:50;;;;;;;17.50;10.85;;;;;;;;;;5015461;28;20045;-88
2023/03/04 00:07:17;;;;;;;18.75;11.25;;;;;;;;;;5015544;28;20418;-88
2023/03/04 00:09:45;;;;;;;20.42;12.20;;;;;;;;;;5016130;28;20054;-88
2023/03/04 00:12:12;;;;;;;18.90;11.07;;;;;;;;;;5015205;28;20112;-89
2023/03/04 00:14:40;;;;;;;19.05;11.13;;;;;;;;;;5015534;28;20140;-88
2023/03/04 00:17:07;;;;;;;18.70;11.57;;;;;;;;;;5016461;28;20053;-88
2023/03/04 00:19:35;;;;;;;19.30;11.65;;;;;;;;;;5016055;28;20049;-88
2023/03/04 00:22:03;;;;;;;20.77;11.48;;;;;;;;;;5015332;28;20058;-88
2023/03/04 00:24:30;;;;;;;18.83;11.73;;;;;;;;;;5014790;28;20049;-88
2023/03/04 00:26:58;;;;;;;19.52;11.68;;;;;;;;;;5015018;28;20133;-88
2023/03/04 00:29:25;;;;;;;16.30;11.20;;;;;;;;;;5016093;28;20494;-88
2023/03/04 00:31:52;;;;;;;22.35;12.10;;;;;;;;;;5016029;28;20045;-88
2023/03/04 00:34:19;;;;;;;20.38;11.57;;;;;;;;;;5015942;28;20137;-88
2023/03/04 00:36:47;;;;;;;20.25;11.73;;;;;;;;;;5014907;28;20054;-88
2023/03/04 00:39:14;;;;;;;20.83;12.07;;;;;;;;;;5013198;28;20050;-88
2023/03/04 00:41:41;;;;;;;20.23;11.50;;;;;;;;;;5013303;28;20057;-89
2023/03/04 00:44:08;;;;;;;20.70;11.82;;;;;;;;;;5015169;28;20045;-89
2023/03/04 00:46:35;;;;;;;24.95;12.25;;;;;;;;;;5013866;28;20052;-88
2023/03/04 00:49:03;;;;;;;22.60;12.32;;;;;;;;;;5014812;28;20054;-89
2023/03/04 00:51:30;;;;;;;21.08;12.00;;;;;;;;;;5014939;28;20137;-88
2023/03/04 00:53:57;;;;;;;17.77;11.00;;;;;;;;;;5015070;28;20052;-88
2023/03/04 00:56:27;;;;;;;20.48;11.70;;;;;;;;;;5014138;28;20050;-88
2023/03/04 00:58:54;;;;;;;20.35;11.40;;;;;;;;;;5014287;28;20054;-87
2023/03/04 01:01:21;;;;;;;17.17;11.75;;;;;;;;;;5015495;28;20073;-88
2023/03/04 01:03:48;;;;;;;19.77;11.80;;;;;;;;;;5015465;28;20399;-88
2023/03/04 01:06:16;;;;;;;17.50;11.60;;;;;;;;;;5013938;28;20099;-88
2023/03/04 01:08:43;;;;;;;17.63;10.32;;;;;;;;;;5014280;28;20456;-88
2023/03/04 01:11:10;;;;;;;19.35;11.73;;;;;;;;;;5014918;28;20077;-88
2023/03/04 01:13:38;;;;;;;18.58;11.02;;;;;;;;;;5013895;28;20046;-88
2023/03/04 01:16:06;;;;;;;20.10;12.35;;;;;;;;;;5014843;28;20049;-88
2023/03/04 01:18:33;;;;;;;18.77;11.05;;;;;;;;;;5014137;28;20049;-88
2023/03/04 01:21:00;;;;;;;19.73;12.15;;;;;;;;;;5015109;28;20513;-88
2023/03/04 01:23:27;;;;;;;21.10;12.18;;;;;;;;;;5014032;28;20049;-88
2023/03/04 01:25:55;;;;;;;22.13;13.70;;;;;;;;;;5013714;28;20056;-88
2023/03/04 01:28:22;;;;;;;25.40;15.40;;;;;;;;;;5013803;28;20046;-88
2023/03/04 01:30:49;;;;;;;23.77;14.40;;;;;;;;;;5013860;28;20060;-88
2023/03/04 01:33:16;;;;;;;24.23;13.25;;;;;;;;;;5014294;28;20098;-88
2023/03/04 01:35:44;;;;;;;20.85;12.15;;;;;;;;;;5014648;28;20061;-88
2023/03/04 01:38:11;;;;;;;19.92;12.77;;;;;;;;;;5014022;28;20050;-88
2023/03/04 01:40:39;;;;;;;19.48;12.25;;;;;;;;;;5014669;28;20049;-88
2023/03/04 01:43:06;;;;;;;20.40;11.90;;;;;;;;;;5013849;28;20409;-88
2023/03/04 01:45:34;;;;;;;19.42;12.15;;;;;;;;;;5013753;28;20441;-88
2023/03/04 01:48:01;;;;;;;20.45;12.13;;;;;;;;;;5014677;28;20057;-88
2023/03/04 01:50:33;;;;;;;19.35;12.30;;;;;;;;;;5014837;28;20060;-88
2023/03/04 01:53:01;;;;;;;20.33;11.82;;;;;;;;;;5013870;28;20042;-87
2023/03/04 01:55:29;;;;;;;18.50;11.98;;;;;;;;;;5014464;28;20394;-88
2023/03/04 01:57:56;;;;;;;19.17;11.63;;;;;;;;;;5013793;28;20052;-88
2023/03/04 02:00:31;;;;;;;21.25;12.48;;;;;;;;;;5013362;28;20072;-86
2023/03/04 02:03:03;;;;;;;19.77;11.40;;;;;;;;;;5014393;28;20042;-88
2023/03/04 02:05:31;;;;;;;22.38;13.23;;;;;;;;;;5014644;28;20054;-88
2023/03/04 02:08:00;;;;;;;18.40;11.95;;;;;;;;;;5013539;28;20096;-87
2023/03/04 02:10:28;;;;;;;22.00;12.20;;;;;;;;;;5013514;28;20486;-88
2023/03/04 02:12:56;;;;;;;22.92;12.10;;;;;;;;;;5013544;28;20142;-88
2023/03/04 02:15:23;;;;;;;20.88;12.25;;;;;;;;;;5013456;28;20145;-88
2023/03/04 02:17:50;;;;;;;25.48;13.50;;;;;;;;;;5016472;28;20046;-88
2023/03/04 02:20:22;;;;;;;23.98;13.20;;;;;;;;;;5018264;28;20057;-87
2023/03/04 02:23:13;;;;;;;25.67;14.23;;;;;;;;;;5017526;28;20498;-88
2023/03/04 02:25:44;;;;;;;24.50;13.52;;;;;;;;;;5011956;28;20050;-88
2023/03/04 02:28:12;;;;;;;23.60;13.68;;;;;;;;;;5017039;28;20042;-88
2023/03/04 02:30:39;;;;;;;26.23;13.75;;;;;;;;;;5017130;28;20049;-88
2023/03/04 02:33:06;;;;;;;23.42;13.10;;;;;;;;;;5018223;28;20049;-87
2023/03/04 02:35:33;;;;;;;22.27;12.88;;;;;;;;;;5017250;28;20417;-88
2023/03/04 02:38:01;;;;;;;23.80;13.75;;;;;;;;;;5016779;28;20077;-88
2023/03/04 02:40:29;;;;;;;22.38;12.98;;;;;;;;;;5017990;28;20060;-88
2023/03/04 02:42:59;;;;;;;21.83;13.98;;;;;;;;;;5017121;28;20050;-88
2023/03/04 02:45:38;;;;;;;22.48;13.48;;;;;;;;;;5017015;28;20057;-88
2023/03/04 02:48:06;;;;;;;25.98;14.32;;;;;;;;;;5017133;28;20057;-87
2023/03/04 02:50:35;;;;;;;24.77;13.27;;;;;;;;;;5016747;28;20571;-88
2023/03/04 02:53:02;;;;;;;20.20;11.57;;;;;;;;;;5016851;28;20052;-89
2023/03/04 02:55:31;;;;;;;22.85;13.27;;;;;;;;;;5016612;28;20050;-87
2023/03/04 02:57:58;;;;;;;22.42;14.48;;;;;;;;;;5016690;28;20056;-88
2023/03/04 03:00:26;;;;;;;23.40;13.07;;;;;;;;;;5016383;28;20054;-88
2023/03/04 03:02:53;;;;;;;23.48;13.13;;;;;;;;;;5017766;28;20052;-87
2023/03/04 03:05:20;;;;;;;25.85;13.75;;;;;;;;;;5017120;28;20042;-87
2023/03/04 03:07:47;;;;;;;24.23;13.35;;;;;;;;;;5017179;28;20057;-88
2023/03/04 03:10:15;;;;;;;25.98;13.75;;;;;;;;;;5017272;28;20387;-88
2023/03/04 03:12:42;;;;;;;23.83;13.40;;;;;;;;;;5016682;28;20050;-87
2023/03/04 03:15:09;;;;;;;22.85;13.35;;;;;;;;;;5016519;28;20482;-87
2023/03/04 03:17:36;;;;;;;24.23;14.00;;;;;;;;;;5017338;28;20095;-87
2023/03/04 03:20:07;;;;;;;28.73;14.68;;;;;;;;;;5016024;28;20050;-87
2023/03/04 03:22:35;;;;;;;27.60;15.00;;;;;;;;;;5016100;28;20482;-87
2023/03/04 03:25:02;;;;;;;27.85;14.80;;;;;;;;;;5017285;28;20409;-87
2023/03/04 03:27:29;;;;;;;25.88;14.48;;;;;;;;;;5015981;28;20053;-87
2023/03/04 03:29:56;;;;;;;26.17;13.75;;;;;;;;;;5016964;28;20049;-87
2023/03/04 03:32:23;;;;;;;24.85;14.55;;;;;;;;;;5015773;28;20414;-88
2023/03/04 03:34:51;;;;;;;27.13;14.63;;;;;;;;;;5015966;28;20050;-87
2023/03/04 03:37:18;;;;;;;22.90;13.57;;;;;;;;;;5017087;28;20050;-87
2023/03/04 03:39:45;;;;;;;26.02;14.93;;;;;;;;;;5016319;28;20050;-87
2023/03/04 03:42:12;;;;;;;27.70;15.13;;;;;;;;;;5015722;28;20082;-87
2023/03/04 03:44:42;;;;;;;27.75;15.05;;;;;;;;;;5015609;28;20057;-87
2023/03/04 03:47:09;;;;;;;25.15;14.13;;;;;;;;;;5015643;28;20054;-87
2023/03/04 03:49:36;;;;;;;27.50;13.93;;;;;;;;;;5017180;28;20056;-87
2023/03/04 03:52:04;;;;;;;25.00;14.15;;;;;;;;;;5019031;28;20060;-87
2023/03/04 03:54:31;;;;;;;23.60;14.35;;;;;;;;;;5015416;28;20050;-87
2023/03/04 03:56:58;;;;;;;24.42;14.73;;;;;;;;;;5015823;28;20073;-87
2023/03/04 03:59:25;;;;;;;23.77;13.23;;;;;;;;;;5016156;28;20505;-87
2023/03/04 04:01:53;;;;;;;24.90;14.85;;;;;;;;;;5015024;28;20056;-86
2023/03/04 04:04:20;;;;;;;26.42;14.68;;;;;;;;;;5014758;28;20502;-87
2023/03/04 04:06:47;;;;;;;22.58;13.35;;;;;;;;;;5015054;28;20045;-86
2023/03/04 04:09:14;;;;;;;23.17;13.68;;;;;;;;;;5014576;28;20060;-87
2023/03/04 04:11:42;;;;;;;23.80;13.95;;;;;;;;;;5014806;28;20056;-87
2023/03/04 04:14:11;;;;;;;24.58;13.48;;;;;;;;;;5014812;28;20072;-87
2023/03/04 04:16:38;;;;;;;27.83;14.98;;;;;;;;;;5014513;28;20050;-86
2023/03/04 04:19:06;;;;;;;22.13;13.32;;;;;;;;;;5014576;28;20104;-87
2023/03/04 04:21:33;;;;;;;25.33;14.25;;;;;;;;;;5016198;28;20049;-87
2023/03/04 04:24:00;;;;;;;22.17;13.82;;;;;;;;;;5015243;28;20052;-86
2023/03/04 04:26:27;;;;;;;24.80;13.65;;;;;;;;;;5014824;28;20050;-87
2023/03/04 04:28:54;;;;;;;26.13;14.25;;;;;;;;;;5015865;28;20041;-87
2023/03/04 04:31:21;;;;;;;21.40;12.93;;;;;;;;;;5014820;28;20046;-87
2023/03/04 04:33:49;;;;;;;26.73;13.45;;;;;;;;;;5016019;28;20057;-87
2023/03/04 04:36:16;;;;;;;21.95;12.88;;;;;;;;;;5015146;28;20129;-87
2023/03/04 04:38:44;;;;;;;24.80;13.18;;;;;;;;;;5013356;28;20137;-87
2023/03/04 04:41:18;;;;;;;20.17;12.57;;;;;;;;;;5014336;28;20045;-87
2023/03/04 04:43:45;;;;;;;24.10;13.20;;;;;;;;;;5014231;28;20064;-86
2023/03/04 04:46:12;;;;;;;25.52;13.45;;;;;;;;;;5013804;28;20050;-87
2023/03/04 04:48:40;;;;;;;20.23;12.52;;;;;;;;;;5013181;28;20050;-87
2023/03/04 04:51:07;;;;;;;22.05;12.70;;;;;;;;;;5015321;28;20421;-87
2023/03/04 04:53:35;;;;;;;22.35;13.05;;;;;;;;;;5014078;28;20056;-86
2023/03/04 04:56:08;;;;;;;21.42;13.50;;;;;;;;;;5014363;28;20046;-86
2023/03/04 04:58:35;;;;;;;;;;;;;;;;;;5014563;28;20069;-86
2023/03/04 05:01:03;;;;;;;23.65;12.00;;;;;;;;;;5014029;28;19921;-86
2023/03/04 05:03:31;;;;;;;21.33;11.60;;;;;;;;;;5014408;28;20054;-86
2023/03/04 05:05:58;;;;;;;20.20;12.27;;;;;;;;;;5014220;28;20104;-87
2023/03/04 05:08:26;;;;;;;22.38;13.40;;;;;;;;;;5013786;28;20054;-87
2023/03/04 05:10:53;;;;;;;23.48;12.13;;;;;;;;;;5014349;28;20046;-86
2023/03/04 05:13:20;;;;;;;23.08;11.38;;;;;;;;;;5014309;28;20045;-87
2023/03/04 05:15:47;;;;;;;23.90;12.57;;;;;;;;;;5013998;28;20401;-86
2023/03/04 05:18:15;;;;;;;21.75;11.57;;;;;;;;;;5013648;28;20050;-86
2023/03/04 05:20:42;;;;;;;22.38;13.32;;;;;;;;;;5013932;28;20092;-86
2023/03/04 05:23:09;;;;;;;20.05;11.35;;;;;;;;;;5013881;28;20052;-86
2023/03/04 05:25:36;;;;;;;24.27;11.88;;;;;;;;;;5013480;28;20046;-86
2023/03/04 05:28:06;;;;;;;23.45;12.05;;;;;;;;;;5014028;28;20050;-87
2023/03/04 05:30:33;;;;;;;19.90;10.95;;;;;;;;;;5013851;28;20085;-87
2023/03/04 05:33:00;;;;;;;23.13;11.10;;;;;;;;;;5013424;28;20049;-86
2023/03/04 05:35:27;;;;;;;21.67;10.50;;;;;;;;;;5013550;28;20148;-86
2023/03/04 05:37:55;;;;;;;20.75;11.32;;;;;;;;;;5013915;28;20073;-86
2023/03/04 05:40:24;;;;;;;302.40;34.85;;;;;;;;;;5013343;28;20050;-86
2023/03/04 05:42:51;;;;;;;25.15;10.95;;;;;;;;;;5013306;28;20053;-85
2023/03/04 05:45:18;;;;;;;24.85;10.63;;;;;;;;;;5012935;28;20050;-85
2023/03/04 05:47:46;;;;;;;21.17;10.07;;;;;;;;;;5013341;28;20049;-86
2023/03/04 05:50:13;;;;;;;21.83;10.07;;;;;;;;;;5014060;28;20042;-86
2023/03/04 05:52:41;;;;;;;24.75;9.75;;;;;;;;;;5012967;28;20050;-86
2023/03/04 05:55:08;;;;;;;19.92;10.45;;;;;;;;;;5013259;28;20046;-87
2023/03/04 05:57:35;;;;;;;25.02;10.27;;;;;;;;;;5013154;28;20060;-86
2023/03/04 06:00:04;;;;;;;20.00;9.77;;;;;;;;;;5013182;28;20050;-86
2023/03/04 06:02:31;;;;;;;26.95;10.00;;;;;;;;;;5014459;28;20057;-87
2023/03/04 06:04:58;;;;;;;18.25;8.80;;;;;;;;;;5013087;28;20057;-87
2023/03/04 06:07:26;;;;;;;33.55;11.13;;;;;;;;;;5014339;28;20092;-86
2023/03/04 06:09:53;;;;;;;22.33;9.63;;;;;;;;;;5013265;28;20088;-87
2023/03/04 06:12:20;;;;;;;25.73;9.65;;;;;;;;;;5013331;28;20092;-86
2023/03/04 06:14:47;;;;;;;23.67;9.70;;;;;;;;;;5013153;28;20046;-86
2023/03/04 06:17:15;;;;;;;20.02;9.13;;;;;;;;;;5013247;28;20057;-86
2023/03/04 06:19:42;;;;;;;17.17;8.85;;;;;;;;;;5012928;28;20049;-87
2023/03/04 06:22:10;;;;;;;21.58;9.38;;;;;;;;;;5013351;28;20413;-86
2023/03/04 06:24:37;;;;;;;24.10;9.32;;;;;;;;;;5014014;28;20483;-87
2023/03/04 06:27:04;;;;;;;24.48;9.25;;;;;;;;;;5012957;28;20050;-87
2023/03/04 06:29:31;;;;;;;20.75;9.05;;;;;;;;;;5014245;28;20483;-87
2023/03/04 06:31:59;;;;;;;20.67;9.43;;;;;;;;;;5014253;28;20129;-86
2023/03/04 06:34:27;;;;;;;21.90;9.15;;;;;;;;;;5013261;28;20045;-86
2023/03/04 06:36:54;;;;;;;28.42;9.55;;;;;;;;;;5012964;28;20455;-87
2023/03/04 06:39:21;;;;;;;23.08;9.30;;;;;;;;;;5014114;28;20420;-87
2023/03/04 06:41:48;;;;;;;21.65;8.75;;;;;;;;;;5013460;28;20049;-88
2023/03/04 06:44:16;;;;;;;29.42;10.23;;;;;;;;;;5012844;28;20415;-86
2023/03/04 06:46:43;;;;;;;18.40;8.90;;;;;;;;;;5012766;28;20166;-86
2023/03/04 06:49:10;;;;;;;24.88;9.05;;;;;;;;;;5013909;28;20489;-85
2023/03/04 06:51:37;;;;;;;23.55;9.07;;;;;;;;;;5014113;28;20046;-87
2023/03/04 06:54:05;;;;;;;21.95;8.52;;;;;;;;;;5012970;28;20054;-86
2023/03/04 06:56:32;;;;;;;23.88;8.80;;;;;;;;;;5012564;28;20045;-86
2023/03/04 06:58:59;;;;;;;25.92;9.20;;;;;;;;;;5013993;28;20046;-86
2023/03/04 07:01:28;;;;;;;22.75;8.85;;;;;;;;;;5013755;28;20049;-87
2023/03/04 07:03:56;;;;;;;20.73;8.45;;;;;;;;;;5015842;28;20175;-87
2023/03/04 07:06:25;;;;;;;21.77;8.75;;;;;;;;;;5016141;28;20046;-87
2023/03/04 07:08:53;;;;;;;65.03;11.02;;;;;;;;;;5017251;28;20133;-87
2023/03/04 07:11:21;;;;;;;29.25;9.45;;;;;;;;;;5017245;28;20486;-86
2023/03/04 07:13:48;;;;;;;27.90;8.60;;;;;;;;;;5016976;28;20100;-87
2023/03/04 07:16:17;;;;;;;20.52;7.63;;;;;;;;;;5017182;28;20053;-86
2023/03/04 07:18:44;;;;;;;19.38;6.95;;;;;;;;;;5015895;28;20136;-87
2023/03/04 07:21:13;;;;;;;23.67;8.05;;;;;;;;;;5016805;28;20058;-87
2023/03/04 07:23:40;;;;;;;18.45;7.50;;;;;;;;;;5017307;28;20046;-87
2023/03/04 07:26:08;;;;;;;15.90;7.32;;;;;;;;;;5015820;28;20041;-87
2023/03/04 07:28:35;;;;;;;23.88;7.65;;;;;;;;;;5016790;28;20402;-86
2023/03/04 07:31:23;;;;;;;18.15;8.30;;;;;;;;;;5016972;28;20053;-86
2023/03/04 07:33:51;;;;;;;16.05;6.80;;;;;;;;;;5016062;28;20050;-86
2023/03/04 07:36:18;;;;;;;16.88;7.13;;;;;;;;;;5015894;28;20046;-87
2023/03/04 07:38:47;;;;;;;20.25;6.50;;;;;;;;;;5015829;28;20076;-87
2023/03/04 07:41:15;;;;;;;26.80;7.22;;;;;;;;;;5016816;28;20046;-87
2023/03/04 07:43:42;;;;;;;23.52;6.53;;;;;;;;;;5015070;28;20589;-87
2023/03/04 07:46:10;;;;;;;12.45;5.80;;;;;;;;;;5015793;28;20085;-87
2023/03/04 07:48:37;;;;;;;17.17;5.53;;;;;;;;;;5015825;28;20046;-87
2023/03/04 07:51:10;;;;;;;22.73;5.90;;;;;;;;;;5015364;28;20049;-86
2023/03/04 07:53:38;;;;;;;27.55;5.97;;;;;;;;;;5016738;28;20057;-86
2023/03/04 07:56:06;;;;;;;13.80;5.05;;;;;;;;;;5015345;28;20054;-87
2023/03/04 07:58:33;;;;;;;18.50;5.43;;;;;;;;;;5016126;28;20490;-87
2023/03/04 08:01:00;;;;;;;16.15;5.32;;;;;;;;;;5015412;28;20133;-87
2023/03/04 08:03:28;;;;;;;14.75;5.05;;;;;;;;;;5015915;28;20132;-87
2023/03/04 08:05:55;;;;;;;17.75;5.28;;;;;;;;;;5015555;28;20056;-87
2023/03/04 08:08:23;;;;;;;22.45;5.07;;;;;;;;;;5015974;28;20057;-87
2023/03/04 08:10:50;;;;;;;27.27;5.97;;;;;;;;;;5016317;28;20065;-86
2023/03/04 08:13:17;;;;;;;16.00;4.93;;;;;;;;;;5016162;28;20056;-86
2023/03/04 08:15:44;;;;;;;18.73;5.05;;;;;;;;;;5014152;28;20505;-87
2023/03/04 08:18:12;;;;;;;17.30;4.80;;;;;;;;;;5016051;28;20397;-86
2023/03/04 08:20:41;;;;;;;15.60;4.47;;;;;;;;;;5015023;28;20442;-87
2023/03/04 08:23:12;;;;;;;11.80;4.53;;;;;;;;;;5015080;28;20406;-86
2023/03/04 08:25:39;;;;;;;12.73;4.15;;;;;;;;;;5014529;28;20104;-86
2023/03/04 08:28:07;;;;;;;20.13;5.00;;;;;;;;;;5014373;28;20049;-86
2023/03/04 08:30:34;;;;;;;13.05;4.43;;;;;;;;;;5015496;28;20414;-87
2023/03/04 08:33:02;;;;;;;16.20;4.65;;;;;;;;;;5014346;28;20056;-86
2023/03/04 08:35:30;;;;;;;13.73;3.90;;;;;;;;;;5015399;28;20046;-86
2023/03/04 08:37:58;;;;;;;18.20;4.68;;;;;;;;;;5014268;28;20502;-86
2023/03/04 08:40:29;;;;;;;21.73;5.30;;;;;;;;;;5014288;28;20581;-86
2023/03/04 08:42:57;;;;;;;12.88;3.38;;;;;;;;;;5015160;28;20409;-87
2023/03/04 08:45:24;;;;;;;15.93;4.45;;;;;;;;;;5014273;28;20049;-86
2023/03/04 08:47:51;;;;;;;16.23;3.72;;;;;;;;;;5013660;28;20508;-87
2023/03/04 08:50:19;;;;;;;15.20;3.90;;;;;;;;;;5013817;28;20045;-86
2023/03/04 08:52:48;;;;;;;11.50;3.22;;;;;;;;;;5015241;28;20421;-87
2023/03/04 08:55:15;;;;;;;11.88;3.45;;;;;;;;;;5015175;28;20050;-86
2023/03/04 08:57:43;;;;;;;11.65;3.53;;;;;;;;;;5013999;28;20064;-86
2023/03/04 09:00:10;;;;;;;12.65;2.72;;;;;;;;;;5013864;28;20045;-86
2023/03/04 09:02:38;;;;;;;11.18;3.28;;;;;;;;;;5013772;28;20053;-86
2023/03/04 09:05:05;;;;;;;10.60;3.20;;;;;;;;;;5014940;28;20153;-87
2023/03/04 09:07:33;;;;;;;12.45;2.92;;;;;;;;;;5013538;28;20054;-86
2023/03/04 09:10:00;;;;;;;22.55;3.72;;;;;;;;;;5014716;28;20137;-86
2023/03/04 09:12:27;;;;;;;10.57;2.67;;;;;;;;;;5014000;28;20478;-87
2023/03/04 09:14:55;;;;;;;16.63;3.20;;;;;;;;;;5013841;28;20050;-86
2023/03/04 09:17:36;;;;;;;12.07;2.95;;;;;;;;;;5014644;28;20041;-87
2023/03/04 09:20:04;;;;;;;16.00;3.35;;;;;;;;;;5013594;28;20060;-86
2023/03/04 09:22:31;;;;;;;10.30;3.55;;;;;;;;;;5014709;28;20056;-86
2023/03/04 09:24:58;;;;;;;15.05;3.80;;;;;;;;;;5013338;28;20053;-86
2023/03/04 09:27:25;;;;;;;11.40;3.20;;;;;;;;;;5014081;28;20072;-86
2023/03/04 09:29:53;;;;;;;14.75;3.63;;;;;;;;;;5014560;28;20217;-86
2023/03/04 09:32:20;;;;;;;10.23;2.72;;;;;;;;;;5013988;28;20045;-85
2023/03/04 09:34:47;;;;;;;9.90;2.92;;;;;;;;;;5013221;28;20054;-86
2023/03/04 09:37:16;;;;;;;11.68;3.75;;;;;;;;;;5013120;28;20050;-86
2023/03/04 09:39:44;;;;;;;8.55;2.80;;;;;;;;;;5013376;28;20136;-87
2023/03/04 09:42:17;;;;;;;15.88;2.97;;;;;;;;;;5014371;28;20129;-86
2023/03/04 09:44:44;;;;;;;;;;;;;;;;;;5014549;28;20133;-86
2023/03/04 09:47:13;;;;;;;12.40;2.42;;;;;;;;;;5012859;28;20012;-86
2023/03/04 09:49:43;;;;;;;12.55;2.78;;;;;;;;;;5012836;28;20079;-86
2023/03/04 09:52:29;;;;;;;12.30;2.50;;;;;;;;;;5013828;28;20500;-86
2023/03/04 09:55:14;;;;;;;13.10;3.03;;;;;;;;;;5013973;28;20054;-86
2023/03/04 09:57:44;;;;;;;9.85;2.78;;;;;;;;;;5013035;28;20387;-86
2023/03/04 10:00:30;;;;;;;19.00;3.05;;;;;;;;;;5012716;28;20133;-86
2023/03/04 10:03:10;;;;;;;11.05;2.60;;;;;;;;;;5012819;28;20121;-86
2023/03/04 10:05:48;;;;;;;11.27;2.83;;;;;;;;;;5013940;28;20128;-86
2023/03/04 10:08:28;;;;;;;14.82;3.17;;;;;;;;;;5013425;28;20061;-86
2023/03/04 10:10:58;;;;;;;7.30;2.13;;;;;;;;;;5012803;28;20473;-86
2023/03/04 10:13:46;;;;;;;8.32;2.65;;;;;;;;;;5012566;28;20053;-86
2023/03/04 10:16:16;;;;;;;9.25;2.30;;;;;;;;;;5012843;28;20056;-86
2023/03/04 10:18:49;;;;;;;12.88;2.20;;;;;;;;;;5012892;28;20046;-86
2023/03/04 10:21:21;;;;;;;12.82;2.63;;;;;;;;;;5012552;28;20050;-86
2023/03/04 10:23:49;;;;;;;9.00;2.50;;;;;;;;;;5012808;28;20045;-85
2023/03/04 10:26:19;;;;;;;9.25;3.00;;;;;;;;;;5012383;28;20484;-86
2023/03/04 10:28:47;;;;;;;17.88;7.93;;;;;;;;;;5012837;28;20056;-85
2023/03/04 10:31:28;;;;;;;9.25;4.00;;;;;;;;;;5012675;28;20042;-86
2023/03/04 10:33:56;;;;;;;7.13;2.00;;;;;;;;;;5012568;28;20057;-86
2023/03/04 10:36:29;;;;;;;8.50;1.67;;;;;;;;;;5012277;28;20057;-86
2023/03/04 10:39:01;;;;;;;10.40;2.00;;;;;;;;;;5015553;28;20050;-86
2023/03/04 10:41:30;;;;;;;4.93;1.63;;;;;;;;;;5016259;28;20068;-86
2023/03/04 10:44:00;;;;;;;6.53;2.35;;;;;;;;;;5016485;28;20379;-86
2023/03/04 10:46:28;;;;;;;4.97;1.40;;;;;;;;;;5016220;28;20506;-87
2023/03/04 10:48:55;;;;;;;7.95;1.50;;;;;;;;;;5016398;28;20505;-86
2023/03/04 10:51:23;;;;;;;4.68;1.60;;;;;;;;;;5017323;28;20486;-86
2023/03/04 10:54:16;;;;;;;7.25;1.80;;;;;;;;;;5016200;28;20109;-86
2023/03/04 10:56:52;;;;;;;7.22;1.90;;;;;;;;;;5016751;28;20104;-86
2023/03/04 10:59:38;;;;;;;5.15;1.58;;;;;;;;;;5016754;28;20056;-86
2023/03/04 11:02:26;;;;;;;8.35;1.80;;;;;;;;;;5015964;28;20070;-87
2023/03/04 11:04:54;;;;;;;8.02;2.03;;;;;;;;;;5017162;28;20052;-86
2023/03/04 11:07:23;;;;;;;3.47;1.30;;;;;;;;;;5015753;28;20395;-85
2023/03/04 11:09:50;;;;;;;7.15;1.77;;;;;;;;;;5015857;28;20053;-85
2023/03/04 11:12:19;;;;;;;2.20;1.60;;;;;;;;;;5015788;28;20050;-86
2023/03/04 11:14:51;;;;;;;4.57;1.17;;;;;;;;;;5015850;28;20054;-86
2023/03/04 11:17:25;;;;;;;6.43;2.30;;;;;;;;;;5015477;28;20044;-85
2023/03/04 11:20:01;;;;;;;4.18;1.38;;;;;;;;;;5017099;28;20060;-86
2023/03/04 11:22:29;;;;;;;5.50;1.35;;;;;;;;;;5016803;28;20414;-86
2023/03/04 11:25:00;;;;;;;5.20;1.50;;;;;;;;;;5016747;28;20060;-87
2023/03/04 11:27:33;;;;;;;3.78;1.70;;;;;;;;;;5016637;28;20054;-86
2023/03/04 11:30:16;;;;;;;19.92;7.30;;;;;;;;;;5016959;28;20085;-85
2023/03/04 11:32:45;;;;;;;9.60;3.40;;;;;;;;;;5015834;28;20129;-86
2023/03/04 11:35:22;;;;;;;13.98;5.43;;;;;;;;;;5015684;28;20050;-86
2023/03/04 11:38:05;;;;;;;11.65;1.58;;;;;;;;;;5015868;28;20438;-87
2023/03/04 11:40:42;;;;;;;5.28;1.80;;;;;;;;;;5015556;28;20506;-86
2023/03/04 11:43:28;;;;;;;8.45;4.20;;;;;;;;;;5015670;28;20414;-86
2023/03/04 11:45:58;;;;;;;1.95;0.95;;;;;;;;;;5015545;28;20046;-87
2023/03/04 11:48:32;;;;;;;7.60;1.23;;;;;;;;;;5015962;28;20080;-85
2023/03/04 11:51:18;;;;;;;2.83;1.15;;;;;;;;;;5015432;28;20046;-86
2023/03/04 11:54:07;;;;;;;5.63;1.17;;;;;;;;;;5016356;28;20092;-87
2023/03/04 11:56:35;;;;;;;2.40;1.02;;;;;;;;;;5016371;28;20145;-86
2023/03/04 11:59:08;;;;;;;4.38;1.42;;;;;;;;;;5014969;28;20053;-86
2023/03/04 12:01:47;;;;;;;6.45;1.55;;;;;;;;;;5015163;28;20054;-86
2023/03/04 12:04:30;;;;;;;2.33;1.05;;;;;;;;;;5016020;28;20052;-86
2023/03/04 12:07:08;;;;;;;4.10;1.10;;;;;;;;;;5016198;28;20053;-87
2023/03/04 12:09:45;;;;;;;2.10;0.77;;;;;;;;;;5014903;28;20140;-86
2023/03/04 12:12:15;;;;;;;3.42;0.93;;;;;;;;;;5015278;28;20128;-87
2023/03/04 12:15:02;;;;;;;2.75;0.73;;;;;;;;;;5015175;28;20136;-86
2023/03/04 12:17:32;;;;;;;3.05;0.60;;;;;;;;;;5014980;28;20046;-85
2023/03/04 12:20:06;;;;;;;2.22;0.60;;;;;;;;;;5015775;28;20084;-86
2023/03/04 12:22:55;;;;;;;4.65;0.93;;;;;;;;;;5015812;28;20104;-86
2023/03/04 12:25:49;;;;;;;2.83;0.60;;;;;;;;;;5014711;28;20099;-86
2023/03/04 12:28:35;;;;;;;1.98;0.88;;;;;;;;;;5012812;28;20050;-87
2023/03/04 12:31:05;;;;;;;3.08;0.68;;;;;;;;;;5014721;28;20057;-86
2023/03/04 12:33:44;;;;;;;2.10;0.60;;;;;;;;;;5014676;28;20049;-86
2023/03/04 12:36:25;;;;;;;6.15;1.10;;;;;;;;;;5014407;28;20112;-86
2023/03/04 12:38:52;;;;;;;3.42;1.02;;;;;;;;;;5014609;28;20149;-86
2023/03/04 12:41:32;;;;;;;2.70;0.93;;;;;;;;;;5014230;28;20046;-86
2023/03/04 12:44:19;;;;;;;3.47;0.85;;;;;;;;;;5014268;28;20140;-86
2023/03/04 12:46:52;;;;;;;2.40;0.77;;;;;;;;;;5013999;28;20478;-86
2023/03/04 12:49:19;;;;;;;2.88;1.00;;;;;;;;;;5013891;28;20395;-86
2023/03/04 12:51:58;;;;;;;3.50;1.13;;;;;;;;;;5015150;28;20049;-85
2023/03/04 12:54:47;;;;;;;2.60;0.88;;;;;;;;;;5013880;28;20140;-86
2023/03/04 12:57:19;;;;;;;4.15;2.10;;;;;;;;;;5014753;28;20514;-86
2023/03/04 13:00:05;;;;;;;3.88;0.90;;;;;;;;;;5014857;28;20050;-87
2023/03/04 13:02:39;;;;;;;3.47;0.60;;;;;;;;;;5014996;28;20060;-86
2023/03/04 13:05:24;;;;;;;3.53;0.80;;;;;;;;;;5014989;28;20050;-86
2023/03/04 13:08:10;;;;;;;1.67;1.00;;;;;;;;;;5013708;28;20526;-86
2023/03/04 13:10:37;;;;;;;2.60;0.90;;;;;;;;;;5013662;28;20100;-87
2023/03/04 13:13:05;;;;;;;2.10;0.70;;;;;;;;;;5014752;28;20589;-87
2023/03/04 13:15:32;;;;;;;1.73;0.98;;;;;;;;;;5014731;28;20046;-86
2023/03/04 13:18:18;;;;;;;3.67;1.00;;;;;;;;;;5013892;28;20068;-87
2023/03/04 13:20:45;;;;;;;1.40;0.80;;;;;;;;;;5014565;28;20041;-85
2023/03/04 13:23:27;;;;;;;1.25;1.00;;;;;;;;;;5014396;28;20053;-86
2023/03/04 13:25:54;;;;;;;2.47;0.82;;;;;;;;;;5013594;28;20129;-86
2023/03/04 13:28:23;;;;;;;3.47;0.90;;;;;;;;;;5013035;28;20054;-87
2023/03/04 13:30:58;;;;;;;8.07;1.90;;;;;;;;;;5014415;28;20050;-86
2023/03/04 13:33:25;;;;;;;4.70;1.10;;;;;;;;;;5014281;28;20062;-87
2023/03/04 13:36:02;;;;;;;1.00;0.90;;;;;;;;;;5012629;28;20493;-87
2023/03/04 13:38:30;;;;;;;1.20;0.70;;;;;;;;;;5002576;28;20085;-87
2023/03/04 13:41:14;;;;;;;4.68;0.95;;;;;;;;;;5000883;28;20046;-86
2023/03/04 13:43:41;;;;;;;;;;;;;;;;;;5004551;28;20052;-86
2023/03/04 13:46:22;;;;;;;2.65;0.70;;;;;;;;;;5004582;28;20382;-87
2023/03/04 13:48:50;;;;;;;5.55;0.80;;;;;;;;;;4999063;28;20058;-87
2023/03/04 13:51:36;;;;;;;1.10;0.75;;;;;;;;;;4997759;28;20112;-87
2023/03/04 13:54:19;;;;;;;1.48;0.85;;;;;;;;;;5025394;28;20052;-87
2023/03/04 13:56:47;;;;;;;11.98;1.30;;;;;;;;;;5005183;28;20038;-86
2023/03/04 13:59:26;;;;;;;2.20;0.90;;;;;;;;;;5003994;28;20046;-86
2023/03/04 14:02:02;;;;;;;1.67;1.00;;;;;;;;;;5004767;28;20042;-87
2023/03/04 14:04:33;;;;;;;2.00;1.00;;;;;;;;;;5002262;28;20058;-86
2023/03/04 14:07:01;;;;;;;8.38;1.10;;;;;;;;;;5004127;28;20045;-86
2023/03/04 14:09:33;;;;;;;2.58;0.80;;;;;;;;;;5001302;28;20068;-86
2023/03/04 14:12:02;;;;;;;1.30;1.00;;;;;;;;;;5002602;28;20510;-87
2023/03/04 14:14:33;;;;;;;3.47;1.00;;;;;;;;;;5005893;28;20608;-87
2023/03/04 14:17:05;;;;;;;2.63;1.10;;;;;;;;;;5012211;28;20070;-86
2023/03/04 14:19:34;;;;;;;5.10;1.10;;;;;;;;;;5016695;28;20504;-87
2023/03/04 14:22:02;;;;;;;3.50;0.90;;;;;;;;;;5016155;28;20073;-85
2023/03/04 14:24:29;;;;;;;5.80;1.20;;;;;;;;;;5016993;28;20054;-86
2023/03/04 14:27:06;;;;;;;2.05;0.90;;;;;;;;;;5016627;28;20050;-86
2023/03/04 14:29:34;;;;;;;2.75;0.98;;;;;;;;;;5017338;28;20046;-86
2023/03/04 14:32:01;;;;;;;1.90;0.80;;;;;;;;;;5017316;28;20054;-87
2023/03/04 14:34:36;;;;;;;2.70;0.95;;;;;;;;;;5016176;28;20073;-86
2023/03/04 14:37:16;;;;;;;5.35;1.35;;;;;;;;;;5016419;28;20112;-86
2023/03/04 14:39:43;;;;;;;2.25;0.90;;;;;;;;;;5016126;28;20050;-87
2023/03/04 14:42:12;;;;;;;1.00;0.90;;;;;;;;;;5015473;28;20042;-87
2023/03/04 14:44:44;;;;;;;1.10;0.70;;;;;;;;;;5017171;28;20060;-87
2023/03/04 14:47:16;;;;;;;1.30;1.20;;;;;;;;;;5017062;28;20053;-87